createdAt,value
2023-03-12T08:05:28.450Z,7.70
2023-03-12T08:11:42.339Z,8.17
2023-03-12T08:14:09.722Z,8.20
2023-03-12T08:16:38.188Z,8.30
2023-03-12T08:19:05.544Z,8.60
2023-03-12T08:21:32.948Z,10.07
2023-03-12T08:24:00.301Z,10.07
2023-03-12T08:26:28.276Z,8.60
2023-03-12T08:28:55.654Z,9.43
2023-03-12T08:31:23.295Z,10.00
2023-03-12T08:33:50.618Z,8.93
2023-03-12T08:36:18.129Z,8.67
2023-03-12T08:38:45.919Z,8.90
2023-03-12T08:41:13.381Z,9.83
2023-03-12T08:43:40.959Z,10.13
2023-03-12T08:46:09.828Z,9.33
2023-03-12T08:48:38.943Z,9.97
2023-03-12T08:51:07.831Z,9.10
2023-03-12T08:53:36.784Z,9.83
2023-03-12T08:56:05.030Z,8.50
2023-03-12T08:58:32.820Z,8.47
2023-03-12T09:01:00.146Z,8.10
2023-03-12T09:03:27.565Z,8.23
2023-03-12T09:06:16.659Z,9.03
2023-03-12T09:08:44.253Z,9.67
2023-03-12T09:11:13.430Z,9.73
2023-03-12T09:14:03.830Z,9.77
2023-03-12T09:16:29.675Z,9.87
2023-03-12T09:18:57.162Z,10.20
2023-03-12T09:21:24.437Z,10.70
2023-03-12T09:23:52.040Z,11.00
2023-03-12T09:26:19.444Z,11.07
2023-03-12T09:28:46.743Z,10.83
2023-03-12T09:31:14.981Z,11.07
2023-03-12T09:33:42.327Z,12.20
2023-03-12T09:36:09.779Z,12.80
2023-03-12T09:38:38.103Z,13.37
2023-03-12T09:41:07.051Z,12.43
2023-03-12T09:43:42.870Z,13.60
2023-03-12T09:46:18.085Z,13.30
2023-03-12T09:48:47.604Z,14.33
2023-03-12T09:51:20.827Z,14.00
2023-03-12T09:53:56.576Z,15.90
2023-03-12T09:56:26.145Z,14.70
2023-03-12T09:58:55.772Z,15.17
2023-03-12T10:01:44.059Z,15.97
2023-03-12T10:04:31.217Z,16.77
2023-03-12T10:07:27.482Z,17.03
2023-03-12T10:10:24.320Z,16.73
2023-03-12T10:13:19.367Z,17.33
2023-03-12T10:16:07.673Z,16.13
2023-03-12T10:18:48.396Z,17.27
2023-03-12T10:21:27.355Z,17.07
2023-03-12T10:24:27.843Z,17.10
2023-03-12T10:26:58.346Z,20.30
2023-03-12T10:29:38.527Z,18.27
2023-03-12T10:32:16.524Z,18.43
2023-03-12T10:34:49.052Z,18.77
2023-03-12T10:37:31.443Z,17.50
2023-03-12T10:40:00.871Z,17.93
2023-03-12T10:42:30.035Z,19.70
2023-03-12T10:45:10.408Z,18.30
2023-03-12T10:47:40.605Z,18.03
2023-03-12T10:50:26.231Z,17.37
2023-03-12T10:53:13.517Z,18.20
2023-03-12T10:55:41.071Z,17.50
2023-03-12T10:58:23.040Z,16.33
2023-03-12T11:00:58.806Z,16.47
2023-03-12T11:03:26.689Z,17.47
2023-03-12T11:06:00.927Z,17.10
2023-03-12T11:08:35.325Z,17.27
2023-03-12T11:11:04.870Z,17.43
2023-03-12T11:13:35.092Z,16.97
2023-03-12T11:16:25.405Z,14.50
2023-03-12T11:18:58.048Z,15.07
2023-03-12T11:21:25.929Z,14.80
2023-03-12T11:24:07.397Z,13.37
2023-03-12T11:26:53.640Z,13.40
2023-03-12T11:29:27.560Z,12.73
2023-03-12T11:32:03.697Z,13.00
2023-03-12T11:34:35.100Z,12.80
2023-03-12T11:37:28.055Z,13.07
2023-03-12T11:40:28.602Z,12.00
2023-03-12T11:43:08.363Z,12.63
2023-03-12T11:45:57.836Z,13.70
2023-03-12T11:48:43.416Z,12.23
2023-03-12T11:51:33.848Z,12.60
2023-03-12T11:54:15.200Z,13.70
2023-03-12T11:56:47.126Z,13.17
2023-03-12T11:59:54.711Z,12.93
2023-03-12T12:02:42.106Z,14.13
2023-03-12T12:05:23.882Z,12.87
2023-03-12T12:08:22.350Z,13.73
2023-03-12T12:11:24.352Z,13.80
2023-03-12T12:14:18.663Z,13.90
2023-03-12T12:17:10.841Z,14.17
2023-03-12T12:19:53.328Z,14.60
2023-03-12T12:22:41.870Z,14.97
2023-03-12T12:25:21.193Z,14.07
2023-03-12T12:27:52.485Z,14.07
2023-03-12T12:30:27.937Z,14.73
2023-03-12T12:33:15.511Z,14.47
2023-03-12T12:35:46.553Z,14.23
2023-03-12T12:38:42.822Z,14.13
2023-03-12T12:41:22.564Z,14.90
2023-03-12T12:43:55.090Z,14.23
2023-03-12T12:46:26.388Z,14.53
2023-03-12T12:48:55.452Z,14.27
2023-03-12T12:51:28.139Z,15.20
2023-03-12T12:54:02.710Z,15.97
2023-03-12T12:56:38.797Z,13.57
2023-03-12T12:59:26.210Z,14.27
2023-03-12T13:01:56.072Z,13.23
2023-03-12T13:04:37.483Z,13.10
2023-03-12T13:07:13.872Z,13.03
2023-03-12T13:09:44.168Z,13.73
2023-03-12T13:12:19.895Z,12.93
2023-03-12T13:14:48.919Z,13.30
2023-03-12T13:17:41.636Z,14.23
2023-03-12T13:20:22.827Z,13.33
2023-03-12T13:23:24.810Z,13.17
2023-03-12T13:26:16.724Z,13.27
2023-03-12T13:28:56.829Z,14.03
2023-03-12T13:31:27.052Z,14.23
2023-03-12T13:34:06.194Z,13.40
2023-03-12T13:36:37.203Z,13.07
2023-03-12T13:39:07.620Z,13.07
2023-03-12T13:41:42.228Z,13.30
2023-03-12T13:44:31.210Z,13.20
2023-03-12T13:47:10.798Z,13.13
2023-03-12T13:49:56.520Z,13.57
2023-03-12T13:52:30.986Z,13.37
2023-03-12T13:55:13.450Z,13.30
2023-03-12T13:57:46.767Z,12.37
2023-03-12T14:00:20.001Z,11.90
2023-03-12T14:02:53.382Z,13.33
2023-03-12T14:05:21.581Z,12.83
2023-03-12T14:07:55.876Z,13.00
2023-03-12T14:10:32.147Z,14.97
2023-03-12T14:13:15.531Z,12.77
2023-03-12T14:16:01.926Z,12.50
2023-03-12T14:18:31.464Z,14.43
2023-03-12T14:21:01.292Z,13.63
2023-03-12T14:23:35.002Z,15.20
2023-03-12T14:26:04.537Z,13.60
2023-03-12T14:28:33.802Z,13.57
2023-03-12T14:31:09.407Z,13.50
2023-03-12T14:34:00.085Z,14.13
2023-03-12T14:36:35.953Z,14.37
2023-03-12T14:39:32.420Z,12.80
2023-03-12T14:42:04.867Z,14.43
2023-03-12T14:44:36.550Z,15.57
2023-03-12T14:47:17.272Z,15.27
2023-03-12T14:49:46.624Z,14.07
2023-03-12T14:52:21.504Z,15.70
2023-03-12T14:55:00.602Z,14.77
2023-03-12T14:57:28.056Z,14.60
2023-03-12T14:59:58.321Z,13.93
2023-03-12T15:02:28.690Z,14.83
2023-03-12T15:04:58.849Z,15.30
2023-03-12T15:07:31.821Z,14.07
2023-03-12T15:09:59.417Z,15.27
2023-03-12T15:12:31.106Z,15.47
2023-03-12T15:15:06.917Z,13.27
2023-03-12T15:17:35.748Z,16.00
2023-03-12T15:20:09.326Z,14.60
2023-03-12T15:22:37.560Z,13.63
2023-03-12T15:25:29.236Z,15.07
2023-03-12T15:28:24.901Z,14.37
2023-03-12T15:31:15.492Z,15.40
2023-03-12T15:33:44.687Z,14.47
2023-03-12T15:36:15.361Z,15.70
2023-03-12T15:38:51.955Z,15.63
2023-03-12T15:41:27.934Z,15.63
2023-03-12T15:43:58.029Z,15.93
2023-03-12T15:46:27.220Z,15.37
2023-03-12T15:48:57.965Z,14.63
2023-03-12T15:51:30.270Z,15.17
2023-03-12T15:54:16.100Z,14.60
2023-03-12T15:56:43.462Z,15.93
2023-03-12T15:59:24.200Z,14.77
2023-03-12T16:01:54.345Z,14.63
2023-03-12T16:04:23.191Z,13.87
2023-03-12T16:06:52.673Z,14.17
2023-03-12T16:09:26.424Z,13.87
2023-03-12T16:11:55.248Z,13.23
2023-03-12T16:14:34.509Z,13.30
2023-03-12T16:17:01.908Z,13.00
2023-03-12T16:19:33.086Z,12.77
2023-03-12T16:22:00.516Z,13.60
2023-03-12T16:24:28.191Z,14.03
2023-03-12T16:26:57.878Z,12.77
2023-03-12T16:29:34.053Z,11.97
2023-03-12T16:32:01.938Z,12.90
2023-03-12T16:34:29.302Z,12.87
2023-03-12T16:36:56.769Z,12.17
2023-03-12T16:39:24.470Z,12.07
2023-03-12T16:41:51.837Z,13.07
2023-03-12T16:44:21.275Z,13.43
2023-03-12T16:46:49.653Z,13.43
2023-03-12T16:49:19.671Z,13.07
2023-03-12T16:51:47.948Z,12.47
2023-03-12T16:54:15.705Z,13.33
2023-03-12T16:56:46.114Z,13.17
2023-03-12T16:59:24.694Z,13.63
2023-03-12T17:01:52.226Z,12.43
2023-03-12T17:04:20.155Z,12.40
2023-03-12T17:06:47.495Z,12.77
2023-03-12T17:09:14.793Z,13.53
2023-03-12T17:11:42.108Z,13.30
2023-03-12T17:14:20.793Z,13.00
2023-03-12T17:16:50.198Z,13.10
2023-03-12T17:19:17.907Z,12.93
2023-03-12T17:21:46.067Z,12.57
2023-03-12T17:24:14.020Z,13.60
2023-03-12T17:26:42.943Z,12.17
2023-03-12T17:29:10.313Z,13.00
2023-03-12T17:31:38.018Z,12.73
2023-03-12T17:34:05.697Z,13.60
2023-03-12T17:36:36.556Z,13.17
2023-03-12T17:39:04.517Z,12.20
2023-03-12T17:41:32.805Z,12.70
2023-03-12T17:44:02.067Z,12.10
2023-03-12T17:46:30.795Z,11.83
2023-03-12T17:48:58.314Z,11.90
2023-03-12T17:51:25.827Z,11.83
2023-03-12T17:53:53.140Z,12.47
2023-03-12T17:56:20.762Z,11.80
2023-03-12T17:58:48.173Z,11.50
2023-03-12T18:01:16.889Z,11.77
2023-03-12T18:03:44.376Z,11.73
2023-03-12T18:06:12.099Z,11.97
2023-03-12T18:08:39.395Z,12.40
2023-03-12T18:11:06.824Z,12.20
2023-03-12T18:13:34.161Z,11.60
2023-03-12T18:16:01.508Z,11.33
2023-03-12T18:18:28.894Z,10.93
2023-03-12T18:20:56.756Z,10.80
2023-03-12T18:23:25.422Z,10.87
2023-03-12T18:25:53.142Z,11.30
2023-03-12T18:28:21.330Z,11.23
2023-03-12T18:30:49.045Z,11.27
2023-03-12T18:33:17.112Z,10.80
2023-03-12T18:35:44.735Z,11.60
2023-03-12T18:38:12.929Z,11.13
2023-03-12T18:40:40.332Z,11.10
2023-03-12T18:43:08.013Z,10.40
2023-03-12T18:45:35.311Z,10.57
2023-03-12T18:48:02.680Z,9.83
2023-03-12T18:50:30.239Z,10.20
2023-03-12T18:52:57.677Z,10.07
2023-03-12T18:55:25.073Z,10.67
2023-03-12T18:57:52.365Z,9.90
2023-03-12T19:00:19.874Z,9.67
2023-03-12T19:02:48.166Z,9.97
2023-03-12T19:05:16.441Z,10.10
2023-03-12T19:07:44.552Z,11.10
2023-03-12T19:10:12.942Z,12.23
2023-03-12T19:12:51.613Z,12.90
2023-03-12T19:15:22.243Z,11.43
2023-03-12T19:17:50.838Z,11.20
2023-03-12T19:20:18.355Z,12.07
2023-03-12T19:22:45.664Z,11.43
2023-03-12T19:25:13.835Z,12.57
2023-03-12T19:27:41.259Z,12.33
2023-03-12T19:30:09.312Z,10.70
2023-03-12T19:32:43.602Z,9.80
2023-03-12T19:35:12.846Z,8.63
2023-03-12T19:37:41.250Z,7.60
2023-03-12T19:40:10.539Z,7.77
2023-03-12T19:42:37.819Z,6.93
2023-03-12T19:45:05.641Z,7.37
2023-03-12T19:47:33.279Z,8.00
2023-03-12T19:50:00.626Z,7.10
2023-03-12T19:52:28.072Z,7.47
2023-03-12T19:55:04.220Z,7.40
2023-03-12T19:57:34.030Z,7.43
2023-03-12T20:00:01.385Z,7.10
2023-03-12T20:02:31.805Z,7.80
2023-03-12T20:04:59.189Z,7.50
2023-03-12T20:07:26.883Z,8.53
2023-03-12T20:09:54.188Z,7.70
2023-03-12T20:12:21.653Z,9.07
2023-03-12T20:14:49.455Z,8.80
2023-03-12T20:17:17.022Z,8.40
2023-03-12T20:19:44.396Z,7.77
2023-03-12T20:22:11.717Z,7.47
2023-03-12T20:24:38.998Z,7.53
2023-03-12T20:27:06.952Z,7.80
2023-03-12T20:29:34.905Z,7.80
2023-03-12T20:32:02.407Z,7.00
2023-03-12T20:34:29.738Z,7.73
2023-03-12T20:36:58.063Z,6.77
2023-03-12T20:39:25.498Z,6.73
2023-03-12T20:41:52.858Z,6.93
2023-03-12T20:44:20.406Z,6.67
2023-03-12T20:46:47.937Z,6.63
2023-03-12T20:49:15.396Z,6.57
2023-03-12T20:51:42.917Z,6.90
2023-03-12T20:54:11.078Z,6.43
2023-03-12T20:56:43.309Z,6.60
2023-03-12T20:59:11.805Z,7.37
2023-03-12T21:01:39.776Z,6.23
2023-03-12T21:04:07.117Z,6.93
2023-03-12T21:06:34.528Z,6.77
2023-03-12T21:09:02.078Z,6.30
2023-03-12T21:11:31.149Z,6.57
2023-03-12T21:13:58.765Z,6.37
2023-03-12T21:16:26.259Z,6.17
2023-03-12T21:18:57.673Z,6.90
2023-03-12T21:21:25.316Z,6.90
2023-03-12T21:23:52.769Z,6.33
2023-03-12T21:26:20.186Z,6.50
2023-03-12T21:28:47.533Z,6.40
2023-03-12T21:31:16.655Z,6.93
2023-03-12T21:33:43.990Z,6.17
2023-03-12T21:36:13.378Z,6.57
2023-03-12T21:38:42.833Z,7.10
2023-03-12T21:41:13.909Z,6.77
2023-03-12T21:43:41.994Z,6.30
2023-03-12T21:46:18.715Z,6.17
2023-03-12T21:48:48.094Z,6.20
2023-03-12T21:51:17.420Z,5.40
2023-03-12T21:53:45.007Z,6.70
2023-03-12T21:56:12.573Z,6.90
2023-03-12T21:58:39.948Z,6.20
2023-03-12T22:01:11.906Z,6.57
2023-03-12T22:03:40.353Z,6.63
2023-03-12T22:06:08.522Z,6.57
2023-03-12T22:08:36.451Z,6.60
2023-03-12T22:11:05.756Z,6.30
2023-03-12T22:13:33.436Z,5.87
2023-03-12T22:16:03.605Z,6.10
2023-03-12T22:18:31.347Z,6.23
2023-03-12T22:21:01.567Z,6.30
2023-03-12T22:23:29.862Z,6.20
2023-03-12T22:26:05.209Z,5.73
2023-03-12T22:28:33.307Z,5.30
2023-03-12T22:31:02.792Z,6.60
2023-03-12T22:33:30.417Z,6.70
2023-03-12T22:35:58.154Z,6.30
2023-03-12T22:38:25.518Z,6.23
2023-03-12T22:40:55.528Z,6.33
2023-03-12T22:43:25.604Z,6.83
2023-03-12T22:45:54.573Z,7.07
2023-03-12T22:48:21.880Z,6.97
2023-03-12T22:50:55.346Z,6.50
2023-03-12T22:53:23.048Z,5.97
2023-03-12T22:56:02.289Z,7.40
2023-03-12T22:58:30.042Z,6.50
2023-03-12T23:01:04.664Z,6.10
2023-03-12T23:03:33.561Z,7.07
2023-03-12T23:06:01.914Z,7.17
2023-03-12T23:08:30.128Z,7.00
2023-03-12T23:10:59.980Z,5.80
2023-03-12T23:13:28.736Z,6.30
2023-03-12T23:16:05.264Z,6.63
2023-03-12T23:18:33.830Z,6.03
2023-03-12T23:21:04.468Z,6.67
2023-03-12T23:23:32.120Z,6.57
2023-03-12T23:26:00.509Z,6.70
2023-03-12T23:28:29.812Z,5.87
2023-03-12T23:31:02.705Z,6.40
2023-03-12T23:33:31.715Z,6.20
2023-03-12T23:36:02.106Z,6.70
2023-03-12T23:38:30.881Z,6.33
2023-03-12T23:41:04.527Z,6.50
2023-03-12T23:43:32.079Z,6.07
2023-03-12T23:46:02.302Z,6.43
2023-03-12T23:48:32.111Z,5.97
2023-03-12T23:51:10.213Z,6.10
2023-03-12T23:53:39.490Z,6.60
2023-03-12T23:56:09.723Z,6.20
2023-03-12T23:58:37.201Z,6.23
